Time;durP1;ratioP1;P1;durP2;ratioP2;P2;SDS_P1;SDS_P2;PMS_P1;PMS_P2;Temp;Humidity;BMP_temperature;BMP_pressure;BME280_temperature;BME280_humidity;BME280_pressure;Samples;Min_cycle;Max_cycle;Signal;HPM_P1;HPM_P2
2021/12/22 00:02:23;;;;;;;4.90;2.72;;;;;;;-2.78;49.49;99988.66;1724543;83;21079;-69
2021/12/22 00:04:50;;;;;;;5.05;2.60;;;;;;;-3.06;49.31;99986.70;1707010;83;21078;-64
2021/12/22 00:07:17;;;;;;;4.37;2.35;;;;;;;-3.22;49.99;99985.63;1704888;83;21153;-64
2021/12/22 00:09:44;;;;;;;9.73;2.80;;;;;;;-3.16;50.07;99988.22;1705713;83;21029;-64
2021/12/22 00:12:11;;;;;;;8.78;3.02;;;;;;;-3.24;50.21;99995.10;1705908;83;20975;-64
2021/12/22 00:14:37;;;;;;;4.05;2.05;;;;;;;-2.97;49.66;99996.73;1705912;83;21055;-63
2021/12/22 00:17:04;;;;;;;5.78;2.83;;;;;;;-3.45;50.35;100002.87;1706610;83;21169;-64
2021/12/22 00:19:31;;;;;;;8.15;2.85;;;;;;;-3.50;50.50;100001.09;1694624;83;21150;-63
2021/12/22 00:21:58;;;;;;;5.97;2.77;;;;;;;-3.54;50.46;99999.19;1705749;83;20988;-64
2021/12/22 00:24:24;;;;;;;4.60;2.35;;;;;;;-3.44;50.49;100005.33;1706194;83;21018;-68
2021/12/22 00:26:53;;;;;;;8.03;3.58;;;;;;;-3.05;50.18;100016.37;1706003;83;21045;-63
2021/12/22 00:29:21;;;;;;;12.10;6.05;;;;;;;-2.76;49.78;100018.72;1707884;83;21074;-63
2021/12/22 00:31:57;;;;;;;8.53;3.50;;;;;;;-2.45;49.49;100016.16;1707009;83;21151;-63
2021/12/22 00:34:16;;;;;;;8.05;3.55;;;;;;;-3.01;49.46;100022.08;1705726;83;20939;-64
2021/12/22 00:36:44;;;;;;;7.15;2.72;;;;;;;-3.16;49.58;100020.55;1707871;83;20991;-68
2021/12/22 00:39:11;;;;;;;9.55;3.80;;;;;;;-3.61;50.92;100031.53;1672759;84;22411;-64
2021/12/22 00:41:38;;;;;;;8.35;4.10;;;;;;;-3.04;50.07;100028.66;1677871;84;21441;-69
2021/12/22 00:44:05;;;;;;;8.73;3.10;;;;;;;-3.35;50.09;100030.67;1707594;83;21125;-65
2021/12/22 00:46:32;;;;;;;7.40;3.60;;;;;;;-3.32;50.09;100034.30;1672857;85;22405;-64
2021/12/22 00:49:01;;;;;;;7.20;3.35;;;;;;;-2.98;49.42;100035.91;1677513;84;20960;-68
2021/12/22 00:51:26;;;;;;;7.45;3.20;;;;;;;-3.08;48.95;100031.05;1707643;83;21452;-65
2021/12/22 00:53:53;;;;;;;7.55;3.10;;;;;;;-3.06;48.65;100040.70;1681660;84;21063;-68
2021/12/22 00:56:19;;;;;;;9.88;3.30;;;;;;;-2.98;48.55;100040.55;1682372;83;21149;-64
2021/12/22 00:58:46;;;;;;;7.03;3.10;;;;;;;-2.97;48.14;100046.00;1682409;84;20980;-64
2021/12/22 01:01:12;;;;;;;7.75;3.17;;;;;;;-2.92;47.84;100038.50;1682138;83;21071;-64
2021/12/22 01:03:41;;;;;;;5.95;2.62;;;;;;;-2.89;47.62;100040.39;1657052;84;22496;-65
2021/12/22 01:06:07;;;;;;;6.20;2.62;;;;;;;-2.59;47.07;100040.53;1706053;83;21053;-63
2021/12/22 01:08:33;;;;;;;5.50;2.70;;;;;;;-2.72;46.63;100037.53;1681166;85;21163;-63
2021/12/22 01:11:00;;;;;;;7.37;3.10;;;;;;;-2.96;46.69;100042.98;1680333;83;21596;-65
2021/12/22 01:13:28;;;;;;;6.35;2.40;;;;;;;-3.19;47.38;100058.52;1709352;82;21006;-65
2021/12/22 01:15:55;;;;;;;5.37;2.30;;;;;;;-3.45;47.66;100061.47;1711214;83;21105;-66
2021/12/22 01:18:31;;;;;;;5.08;2.47;;;;;;;-3.41;47.65;100070.55;1711278;83;21161;-64
2021/12/22 01:23:33;;;;;;;4.60;1.60;;;;;;;-3.52;47.43;100080.64;1701676;83;20493;-62
2021/12/22 01:25:55;;;;;;;6.70;2.08;;;;;;;-3.08;46.77;100084.59;1711091;83;21028;-64
2021/12/22 01:28:24;;;;;;;5.37;2.20;;;;;;;-3.32;46.46;100085.73;1709665;82;21010;-65
2021/12/22 01:31:00;;;;;;;4.25;1.82;;;;;;;-3.40;48.63;100095.61;1708319;82;22401;-65
2021/12/22 01:33:20;;;;;;;4.95;2.15;;;;;;;-3.60;49.57;100100.66;1709645;81;22100;-64
2021/12/22 01:35:46;;;;;;;4.45;1.77;;;;;;;-3.50;49.36;100097.91;1704418;83;21119;-64
2021/12/22 01:38:14;;;;;;;4.30;1.80;;;;;;;-2.92;47.84;100098.43;1711562;83;21078;-63
2021/12/22 01:40:44;;;;;;;4.95;2.10;;;;;;;-3.45;48.03;100107.34;1712258;83;21082;-63
2021/12/22 01:43:14;;;;;;;4.65;1.67;;;;;;;-3.80;47.13;100101.45;1708882;82;20982;-66
2021/12/22 01:49:10;;;;;;;8.70;2.80;;;;;;;-4.19;46.91;100118.72;1680475;85;21034;-64
2021/12/22 01:52:01;;;;;;;6.35;2.15;;;;;;;-4.03;46.67;100119.88;1703976;83;22014;-65
2021/12/22 01:54:38;;;;;;;4.62;1.77;;;;;;;-4.18;46.48;100125.44;1704214;82;21018;-64
2021/12/22 01:57:09;;;;;;;6.87;1.65;;;;;;;-4.44;46.47;100122.70;1684875;83;21089;-64
2021/12/22 01:59:33;;;;;;;5.25;1.75;;;;;;;-4.26;45.87;100119.53;1714425;83;21158;-65
2021/12/22 02:02:02;;;;;;;5.55;2.20;;;;;;;-4.31;45.44;100116.91;1715916;82;20956;-65
2021/12/22 02:04:28;;;;;;;5.03;1.92;;;;;;;-4.02;44.84;100118.50;1726999;81;22484;-64
2021/12/22 02:06:55;;;;;;;4.17;2.00;;;;;;;-3.94;44.26;100130.34;1715885;83;21494;-64
2021/12/22 02:12:10;;;;;;;5.75;2.25;;;;;;;-4.79;45.15;100132.40;1716147;83;21954;-68
2021/12/22 02:14:37;;;;;;;5.70;2.27;;;;;;;-4.75;45.31;100134.31;1716532;83;21057;-66
2021/12/22 02:17:07;;;;;;;3.90;1.57;;;;;;;-4.34;44.93;100143.35;1715796;83;21504;-65
2021/12/22 02:19:42;;;;;;;5.10;2.15;;;;;;;-5.23;45.81;100138.72;1715985;83;21576;-66
2021/12/22 02:22:14;;;;;;;4.65;2.20;;;;;;;-5.40;46.30;100148.55;1714423;83;21093;-64
2021/12/22 02:24:54;;;;;;;3.80;1.85;;;;;;;-5.26;46.07;100157.52;1716226;81;21376;-64
2021/12/22 02:30:03;;;;;;;5.70;2.22;;;;;;;-5.72;46.64;100160.01;1715138;83;21462;-62
2021/12/22 02:33:00;;;;;;;5.90;2.20;;;;;;;-5.65;46.88;100169.36;1715211;83;21107;-62
2021/12/22 02:35:04;;;;;;;4.00;1.90;;;;;;;-5.45;46.72;100168.31;1710403;83;20994;-62
2021/12/22 02:37:40;;;;;;;;;;;;;;;-5.26;46.28;100163.86;1718577;83;21078;-62
2021/12/22 02:40:10;;;;;;;5.10;2.02;;;;;;;-5.03;45.96;100163.04;1715682;83;20233;-62
2021/12/22 02:42:31;;;;;;;5.62;2.77;;;;;;;-4.92;45.55;100165.34;1714333;83;21002;-63
2021/12/22 02:45:16;;;;;;;7.08;1.90;;;;;;;-5.02;45.38;100173.11;1715351;83;21010;-70
2021/12/22 02:47:44;;;;;;;5.12;2.00;;;;;;;-4.95;45.13;100179.49;1716128;83;20977;-63
2021/12/22 02:50:11;;;;;;;4.83;2.00;;;;;;;-4.81;44.68;100185.51;1714178;83;21380;-63
2021/12/22 02:55:30;;;;;;;7.37;2.50;;;;;;;-5.13;44.52;100189.41;1716465;83;21061;-63
2021/12/22 02:57:53;;;;;;;5.53;2.62;;;;;;;-6.27;46.27;100188.27;1715155;83;20994;-63
2021/12/22 03:03:12;;;;;;;4.72;2.10;;;;;;;-6.23;46.38;100194.82;1715395;83;22249;-66
2021/12/22 03:05:35;;;;;;;9.83;2.67;;;;;;;-6.33;46.51;100197.44;1734533;81;21516;-64
2021/12/22 03:08:01;;;;;;;5.78;2.77;;;;;;;-6.41;46.57;100189.41;1739747;82;21044;-63
2021/12/22 03:10:29;;;;;;;8.20;3.00;;;;;;;-6.69;46.91;100193.31;1739243;82;20911;-62
2021/12/22 03:13:01;;;;;;;5.25;2.75;;;;;;;-6.56;46.82;100192.70;1739322;82;21116;-65
2021/12/22 03:15:23;;;;;;;46.77;16.75;;;;;;;-6.69;46.89;100199.64;1738953;81;21632;-63
2021/12/22 03:17:50;;;;;;;13.68;4.67;;;;;;;-6.73;47.11;100199.87;1739432;82;20856;-63
2021/12/22 03:20:17;;;;;;;13.40;5.55;;;;;;;-6.77;47.12;100198.39;1740829;81;20980;-69
2021/12/22 03:22:45;;;;;;;7.87;2.60;;;;;;;-6.87;47.20;100213.20;1739707;82;21419;-64
2021/12/22 03:25:20;;;;;;;6.92;2.62;;;;;;;-6.80;47.05;100210.75;1739517;82;20985;-65
2021/12/22 03:27:47;;;;;;;7.50;2.83;;;;;;;-6.75;46.94;100212.60;1738397;82;21151;-62
2021/12/22 03:30:17;;;;;;;7.25;2.90;;;;;;;-6.57;46.61;100203.75;1728514;82;20879;-66
2021/12/22 03:32:43;;;;;;;5.92;2.55;;;;;;;-6.33;46.07;100206.31;1739071;82;21422;-63
2021/12/22 03:35:17;;;;;;;6.40;2.50;;;;;;;-6.83;46.38;100218.95;1739785;82;20887;-67
2021/12/22 03:37:39;;;;;;;5.95;2.40;;;;;;;-7.10;46.99;100224.42;1738353;82;20919;-62
2021/12/22 03:40:10;;;;;;;4.47;2.22;;;;;;;-6.98;47.03;100225.11;1739267;82;21480;-71
2021/12/22 03:42:38;;;;;;;;;;;;;;;-7.15;46.91;100236.05;1742477;82;21005;-65
2021/12/22 03:45:09;;;;;;;4.42;1.90;;;;;;;-7.22;47.36;100235.12;1739715;82;20147;-63
2021/12/22 03:47:35;;;;;;;5.25;2.00;;;;;;;-7.34;47.58;100241.58;1739777;82;21061;-62
2021/12/22 03:50:04;;;;;;;4.95;1.82;;;;;;;-7.39;47.75;100238.41;1739033;82;21003;-70
2021/12/22 03:52:31;;;;;;;6.55;2.45;;;;;;;-7.35;48.09;100243.30;1739793;82;21234;-64
2021/12/22 03:54:58;;;;;;;4.95;2.05;;;;;;;-7.28;48.16;100253.13;1739276;82;42327;-64
2021/12/22 03:57:26;;;;;;;6.17;2.10;;;;;;;-7.23;48.23;100249.51;1739219;82;20903;-62
2021/12/22 03:59:53;;;;;;;4.55;1.60;;;;;;;-7.10;48.21;100263.23;1739649;81;21121;-62
2021/12/22 04:02:21;;;;;;;7.35;2.37;;;;;;;-6.80;47.95;100259.35;1676784;80;21333;-64
2021/12/22 04:04:49;;;;;;;6.12;2.45;;;;;;;-6.52;47.47;100243.63;1672091;85;21362;-62
2021/12/22 04:07:16;;;;;;;6.35;2.10;;;;;;;-6.84;47.70;100246.45;1675467;85;21011;-67
2021/12/22 04:09:43;;;;;;;5.30;2.20;;;;;;;-7.08;47.98;100261.07;1675891;85;21334;-62
2021/12/22 04:12:10;;;;;;;6.92;2.83;;;;;;;-6.86;48.02;100262.98;1675500;85;20999;-63
2021/12/22 04:14:37;;;;;;;5.90;2.55;;;;;;;-6.52;47.54;100260.92;1675394;85;21437;-62
2021/12/22 04:17:04;;;;;;;7.03;3.02;;;;;;;-6.49;47.35;100253.63;1674883;85;21105;-65
2021/12/22 04:19:30;;;;;;;5.97;3.05;;;;;;;-6.43;47.25;100268.56;1675704;85;21613;-62
2021/12/22 04:21:56;;;;;;;7.15;3.30;;;;;;;-6.06;46.88;100265.45;1675907;84;21464;-63
2021/12/22 04:24:23;;;;;;;7.60;3.12;;;;;;;-5.79;46.50;100265.77;1675503;85;20917;-70
2021/12/22 04:26:51;;;;;;;7.90;3.10;;;;;;;-5.53;46.20;100268.20;1675076;85;21154;-63
2021/12/22 04:29:21;;;;;;;8.38;3.70;;;;;;;-5.33;45.95;100267.17;1676970;84;21859;-62
2021/12/22 04:31:48;;;;;;;8.58;4.53;;;;;;;-5.44;45.93;100270.27;1675342;85;21489;-61
2021/12/22 04:34:14;;;;;;;9.58;3.60;;;;;;;-5.29;46.04;100280.08;1675178;85;21065;-70
2021/12/22 04:36:41;;;;;;;7.10;3.67;;;;;;;-5.24;45.98;100278.92;1675213;84;21010;-62
2021/12/22 04:39:10;;;;;;;7.65;3.33;;;;;;;-5.02;45.70;100276.51;1654373;85;20937;-69
2021/12/22 04:41:36;;;;;;;10.08;4.05;;;;;;;-4.78;45.44;100279.42;1660071;85;21129;-62
2021/12/22 04:44:04;;;;;;;8.15;3.45;;;;;;;-4.94;45.55;100275.18;1671381;85;21044;-70
2021/12/22 04:46:30;;;;;;;7.00;2.35;;;;;;;-4.79;45.61;100284.15;1675703;85;20984;-62
2021/12/22 04:48:57;;;;;;;7.15;2.85;;;;;;;-4.45;45.31;100287.72;1675042;85;21629;-62
2021/12/22 04:51:27;;;;;;;7.05;3.05;;;;;;;-4.31;44.98;100284.86;1674849;85;21012;-62
2021/12/22 04:54:01;;;;;;;9.88;3.33;;;;;;;-4.55;45.22;100288.32;1675321;85;21899;-63
2021/12/22 04:56:20;;;;;;;9.83;3.75;;;;;;;-4.43;45.03;100280.02;1670507;85;20979;-63
2021/12/22 04:58:46;;;;;;;6.97;2.90;;;;;;;-4.11;44.99;100292.16;1672965;84;21625;-63
2021/12/22 05:01:14;;;;;;;8.10;3.12;;;;;;;-3.73;44.25;100287.38;1669868;85;21448;-69
2021/12/22 05:03:41;;;;;;;8.33;3.85;;;;;;;-3.61;43.80;100278.19;1647002;85;21599;-64
2021/12/22 05:06:08;;;;;;;6.25;3.15;;;;;;;-3.58;43.58;100278.47;1660950;85;21137;-68
2021/12/22 05:08:35;;;;;;;7.45;3.52;;;;;;;-3.45;43.62;100280.19;1676041;85;21027;-62
2021/12/22 05:11:03;;;;;;;6.78;3.17;;;;;;;-5.48;46.18;100292.92;1674741;85;21036;-65
2021/12/22 05:13:33;;;;;;;8.50;3.42;;;;;;;-5.28;46.53;100290.15;1662961;85;21105;-66
2021/12/22 05:15:59;;;;;;;10.08;3.72;;;;;;;-5.21;46.78;100291.92;1573366;88;21118;-65
2021/12/22 05:18:48;;;;;;;11.05;4.72;;;;;;;-5.20;46.65;100298.18;1669379;85;21171;-63
2021/12/22 05:20:54;;;;;;;13.80;6.15;;;;;;;-5.14;46.68;100302.95;1659666;85;21142;-64
2021/12/22 05:23:23;;;;;;;6.65;3.40;;;;;;;-4.97;46.80;100306.30;1662856;85;21030;-64
2021/12/22 05:25:50;;;;;;;8.88;4.22;;;;;;;-5.00;46.95;100308.58;1672318;85;21141;-64
2021/12/22 05:28:16;;;;;;;31.70;11.60;;;;;;;-5.03;47.23;100311.28;1667015;85;21549;-71
2021/12/22 05:30:46;;;;;;;14.85;4.65;;;;;;;-4.90;47.22;100315.23;1668574;85;21536;-65
2021/12/22 05:33:15;;;;;;;8.10;4.10;;;;;;;-4.74;47.13;100322.84;1666300;85;20965;-63
2021/12/22 05:35:41;;;;;;;10.25;5.25;;;;;;;-4.60;47.07;100324.65;1670008;85;21055;-71
2021/12/22 05:38:08;;;;;;;9.03;4.60;;;;;;;-4.41;46.76;100317.63;1654769;85;20995;-68
2021/12/22 05:40:37;;;;;;;9.45;3.90;;;;;;;-4.34;46.71;100316.38;1675313;85;20937;-62
2021/12/22 05:43:03;;;;;;;7.25;3.25;;;;;;;-4.38;46.76;100316.19;1665703;85;21161;-63
2021/12/22 05:45:30;;;;;;;9.28;3.12;;;;;;;-4.31;46.74;100317.48;1672584;85;21536;-63
2021/12/22 05:47:59;;;;;;;7.35;3.50;;;;;;;-4.26;46.57;100325.67;1659991;85;21514;-68
2021/12/22 05:50:25;;;;;;;13.70;3.98;;;;;;;-4.39;46.63;100328.55;1658116;85;21079;-61
2021/12/22 05:52:53;;;;;;;9.05;3.67;;;;;;;-4.32;46.78;100333.64;1676135;85;21094;-61
2021/12/22 05:55:23;;;;;;;9.80;3.75;;;;;;;-4.18;46.50;100338.78;1676177;85;21175;-60
2021/12/22 05:57:49;;;;;;;7.60;3.75;;;;;;;-4.21;46.51;100344.50;1644534;85;20914;-77
2021/12/22 06:00:16;;;;;;;7.55;3.65;;;;;;;-4.32;46.81;100343.81;1659965;85;21032;-68
2021/12/22 06:02:45;;;;;;;7.85;3.70;;;;;;;-4.10;46.72;100349.80;1650248;84;21053;-64
2021/12/22 06:05:12;;;;;;;7.72;3.47;;;;;;;-4.03;46.82;100341.37;1631848;86;21031;-67
2021/12/22 06:07:41;;;;;;;10.25;6.37;;;;;;;-3.96;47.03;100338.84;1633925;86;20998;-63
2021/12/22 06:10:09;;;;;;;10.53;3.98;;;;;;;-4.62;47.91;100351.45;1644847;86;21567;-74
2021/12/22 06:12:35;;;;;;;10.10;4.65;;;;;;;-4.79;48.42;100354.89;1653094;86;21054;-62
2021/12/22 06:15:03;;;;;;;14.20;6.15;;;;;;;-4.67;48.58;100354.67;1648004;86;21497;-63
2021/12/22 06:17:29;;;;;;;17.67;6.10;;;;;;;-4.74;48.72;100359.27;1641785;86;21632;-62
2021/12/22 06:19:56;;;;;;;11.75;5.90;;;;;;;-4.71;48.66;100362.92;1632544;86;21837;-61
2021/12/22 06:22:24;;;;;;;11.15;4.97;;;;;;;-4.66;48.60;100371.14;1648297;86;21540;-73
2021/12/22 06:24:50;;;;;;;10.13;5.08;;;;;;;-4.71;48.60;100362.11;1646521;86;21038;-63
2021/12/22 06:27:17;;;;;;;13.03;5.85;;;;;;;-4.48;48.54;100365.48;1644348;86;20947;-64
2021/12/22 06:29:43;;;;;;;10.82;5.17;;;;;;;-4.48;48.12;100364.21;1647642;86;21066;-65
2021/12/22 06:32:10;;;;;;;14.00;6.50;;;;;;;-4.54;47.94;100364.56;1631489;86;21167;-62
2021/12/22 06:34:37;;;;;;;9.80;5.25;;;;;;;-4.73;47.89;100372.83;1627182;86;20896;-63
2021/12/22 06:37:04;;;;;;;11.55;4.55;;;;;;;-4.94;48.01;100380.68;1633024;86;21026;-62
2021/12/22 06:39:31;;;;;;;10.60;4.12;;;;;;;-4.96;48.07;100382.50;1639661;86;21481;-63
2021/12/22 06:41:58;;;;;;;12.18;5.20;;;;;;;-4.84;48.00;100374.67;1643742;86;21098;-61
2021/12/22 06:44:24;;;;;;;8.60;4.17;;;;;;;-4.44;48.25;100382.22;1633245;86;21901;-75
2021/12/22 06:46:51;;;;;;;8.78;4.47;;;;;;;-4.35;48.12;100383.91;1640352;86;21010;-62
2021/12/22 06:49:23;;;;;;;9.43;4.60;;;;;;;-3.73;47.93;100387.17;1653927;86;21019;-66
2021/12/22 06:51:51;;;;;;;9.08;4.40;;;;;;;-3.14;48.05;100389.66;1653604;86;20951;-63
2021/12/22 06:54:18;;;;;;;9.20;4.35;;;;;;;-2.65;47.72;100391.77;1653880;86;21047;-63
2021/12/22 06:56:47;;;;;;;8.90;3.42;;;;;;;-2.18;46.80;100393.90;1648284;86;21173;-61
2021/12/22 06:59:16;;;;;;;7.85;3.92;;;;;;;-1.88;45.74;100396.22;1649920;86;22123;-62
2021/12/22 07:01:42;;;;;;;8.48;4.60;;;;;;;-1.96;44.59;100400.55;1658566;85;20997;-61
2021/12/22 07:04:09;;;;;;;6.60;3.55;;;;;;;-2.09;44.42;100407.80;1654452;85;21473;-61
2021/12/22 07:06:36;;;;;;;7.12;3.22;;;;;;;-1.89;43.90;100411.20;1665181;85;21020;-74
2021/12/22 07:09:02;;;;;;;8.88;3.95;;;;;;;-2.14;43.20;100405.55;1676366;84;21075;-61
2021/12/22 07:11:29;;;;;;;7.67;4.10;;;;;;;-2.33;43.40;100406.36;1671139;85;21082;-62
2021/12/22 07:13:56;;;;;;;7.15;3.52;;;;;;;-2.54;43.58;100412.34;1661913;85;21098;-63
2021/12/22 07:16:23;;;;;;;6.35;3.35;;;;;;;-2.54;43.54;100417.02;1675833;84;21052;-63
2021/12/22 07:18:49;;;;;;;8.38;3.75;;;;;;;-2.54;43.54;100417.02;1660540;84;21046;-70
2021/12/22 07:21:16;;;;;;;6.90;3.70;;;;;;;-2.78;43.32;100419.31;1670824;85;21219;-62
2021/12/22 07:23:43;;;;;;;8.58;3.55;;;;;;;-2.78;43.51;100421.05;1663914;84;21039;-67
2021/12/22 07:26:13;;;;;;;6.87;3.70;;;;;;;-2.77;43.25;100435.44;1657943;85;21024;-61
2021/12/22 07:28:38;;;;;;;9.38;4.22;;;;;;;-3.07;44.00;100428.75;1664018;84;21064;-72
2021/12/22 07:31:04;;;;;;;7.33;3.72;;;;;;;-2.82;43.85;100431.09;1659568;85;21172;-63
2021/12/22 07:33:31;;;;;;;8.08;4.15;;;;;;;-2.87;43.67;100430.55;1650234;84;21182;-65
2021/12/22 07:36:00;;;;;;;7.60;4.03;;;;;;;-2.96;43.77;100431.44;1659670;84;21500;-65
2021/12/22 07:38:50;;;;;;;8.60;3.62;;;;;;;-3.53;43.71;100428.88;1649579;84;21086;-64
2021/12/22 07:41:17;;;;;;;7.45;3.98;;;;;;;-3.50;43.85;100432.98;1658510;84;21106;-62
2021/12/22 07:43:46;;;;;;;11.48;3.50;;;;;;;-3.46;43.92;100436.98;1671648;84;21008;-65
2021/12/22 07:46:12;;;;;;;7.40;3.12;;;;;;;-2.95;44.47;100436.12;1672316;85;22463;-62
2021/12/22 07:48:39;;;;;;;6.10;3.30;;;;;;;-2.27;44.77;100438.72;1660423;85;21028;-70
2021/12/22 07:51:06;;;;;;;6.10;3.15;;;;;;;-1.36;44.10;100439.27;1659284;84;21004;-64
2021/12/22 07:53:32;;;;;;;6.58;3.83;;;;;;;-0.88;43.79;100436.40;1660398;85;21109;-64
2021/12/22 07:55:59;;;;;;;6.20;3.33;;;;;;;0.19;42.61;100426.27;1672221;84;21005;-66
2021/12/22 07:58:25;;;;;;;8.08;3.50;;;;;;;-0.18;41.48;100417.05;1664956;84;21515;-64
2021/12/22 08:00:53;;;;;;;7.97;2.60;;;;;;;-0.44;40.95;100425.30;1664342;84;21031;-69
2021/12/22 08:03:21;;;;;;;5.92;3.22;;;;;;;-0.69;40.52;100426.18;1658314;85;21091;-65
2021/12/22 08:05:48;;;;;;;5.70;3.15;;;;;;;-0.81;39.97;100427.37;1655092;85;21094;-64
2021/12/22 08:08:16;;;;;;;6.00;2.95;;;;;;;-1.18;40.34;100434.64;1670132;85;20936;-64
2021/12/22 08:10:44;;;;;;;5.50;2.90;;;;;;;-0.81;40.84;100432.50;1656074;85;21514;-70
2021/12/22 08:13:10;;;;;;;7.28;3.83;;;;;;;-0.47;40.61;100427.59;1652984;85;20928;-67
2021/12/22 08:15:36;;;;;;;6.92;2.98;;;;;;;-0.42;40.77;100423.42;1655538;85;21491;-64
2021/12/22 08:18:03;;;;;;;7.75;3.30;;;;;;;0.34;40.23;100423.05;1654256;85;21163;-64
2021/12/22 08:20:29;;;;;;;4.90;2.80;;;;;;;0.49;39.73;100421.07;1656167;85;21020;-64
2021/12/22 08:22:56;;;;;;;5.75;2.98;;;;;;;0.81;39.15;100417.39;1650469;85;21811;-65
2021/12/22 08:25:23;;;;;;;6.67;3.12;;;;;;;0.87;39.09;100416.94;1657374;85;20976;-67
2021/12/22 08:27:49;;;;;;;6.03;2.83;;;;;;;1.05;38.48;100416.45;1652069;85;20954;-64
2021/12/22 08:30:16;;;;;;;4.87;2.75;;;;;;;1.19;38.15;100422.63;1650501;85;20968;-62
2021/12/22 08:32:43;;;;;;;4.78;2.45;;;;;;;0.97;38.36;100421.70;1652795;85;21628;-67
2021/12/22 08:35:11;;;;;;;8.18;2.75;;;;;;;0.81;38.90;100415.30;1655534;85;21147;-69
2021/12/22 08:40:19;;;;;;;5.30;3.08;;;;;;;0.75;38.75;100427.29;1619598;85;21080;-62
2021/12/22 08:42:47;;;;;;;4.87;2.58;;;;;;;0.39;38.74;100428.64;1655855;85;20952;-67
2021/12/22 08:45:14;;;;;;;5.22;2.95;;;;;;;0.41;38.75;100424.67;1649236;85;20999;-68
2021/12/22 08:47:41;;;;;;;5.78;2.75;;;;;;;0.32;38.65;100421.05;1649925;85;22180;-65
2021/12/22 08:50:09;;;;;;;4.70;2.67;;;;;;;0.15;38.92;100411.20;1654738;85;20956;-62
2021/12/22 08:52:38;;;;;;;5.33;2.47;;;;;;;0.39;39.62;100408.12;1676063;85;21003;-62
2021/12/22 08:55:06;;;;;;;5.50;2.60;;;;;;;0.47;39.15;100410.13;1650766;85;21519;-71
2021/12/22 08:57:34;;;;;;;5.95;2.87;;;;;;;0.69;38.94;100405.02;1662716;85;21018;-62
2021/12/22 09:00:06;;;;;;;6.28;3.65;;;;;;;0.75;38.54;100402.45;1660097;85;21169;-61
2021/12/22 09:02:33;;;;;;;8.10;3.70;;;;;;;0.54;38.44;100406.64;1658384;85;21016;-64
2021/12/22 09:05:00;;;;;;;6.08;3.00;;;;;;;0.35;38.24;100406.73;1675694;85;21131;-75
2021/12/22 09:07:29;;;;;;;6.03;2.87;;;;;;;0.23;38.61;100412.30;1622206;86;21467;-61
2021/12/22 09:09:57;;;;;;;6.12;2.80;;;;;;;0.30;39.12;100414.39;1671244;85;21007;-62
2021/12/22 09:12:26;;;;;;;9.18;3.45;;;;;;;0.56;39.50;100414.55;1663004;84;21166;-65
2021/12/22 09:14:52;;;;;;;6.28;3.15;;;;;;;0.78;39.62;100425.78;1658753;84;21072;-65
2021/12/22 09:17:19;;;;;;;6.80;2.60;;;;;;;1.10;39.15;100416.45;1658579;84;21437;-67
2021/12/22 09:19:45;;;;;;;5.80;2.77;;;;;;;1.34;38.42;100403.94;1660460;84;21098;-65
2021/12/22 09:22:12;;;;;;;4.85;2.50;;;;;;;1.40;38.07;100409.86;1626378;86;21768;-64
2021/12/22 09:24:39;;;;;;;4.87;2.85;;;;;;;1.51;38.49;100413.68;1634188;86;21156;-64
2021/12/22 09:27:05;;;;;;;5.30;2.60;;;;;;;1.78;38.85;100418.42;1604430;87;21863;-63
2021/12/22 09:29:32;;;;;;;7.10;2.40;;;;;;;2.19;38.62;100415.53;1631420;86;20948;-65
2021/12/22 09:31:59;;;;;;;7.17;3.10;;;;;;;2.32;37.52;100417.45;1663066;84;21086;-64
2021/12/22 09:34:26;;;;;;;4.87;2.72;;;;;;;2.18;37.41;100422.43;1666384;84;20936;-64
2021/12/22 09:36:53;;;;;;;5.45;2.90;;;;;;;2.26;37.20;100414.56;1662028;84;21941;-63
2021/12/22 09:39:19;;;;;;;5.45;2.77;;;;;;;2.23;36.93;100416.09;1663381;84;20936;-64
2021/12/22 09:41:48;;;;;;;5.15;2.80;;;;;;;1.92;36.77;100428.39;1668653;85;21187;-64
2021/12/22 09:44:14;;;;;;;4.97;2.85;;;;;;;1.64;36.66;100427.21;1660044;85;21138;-62
2021/12/22 09:46:41;;;;;;;6.08;3.12;;;;;;;1.26;37.14;100426.36;1654930;85;21079;-63
2021/12/22 09:54:28;;;;;;;6.40;3.27;;;;;;;1.31;38.58;100423.42;1653710;84;21040;-63
2021/12/22 09:56:57;;;;;;;7.28;3.00;;;;;;;1.57;38.08;100429.91;1667786;84;20964;-67
2021/12/22 09:59:23;;;;;;;5.80;2.92;;;;;;;1.21;38.07;100434.42;1636969;85;21021;-63
2021/12/22 10:01:49;;;;;;;5.08;2.95;;;;;;;1.04;38.25;100429.75;1660769;85;22280;-62
2021/12/22 10:04:17;;;;;;;5.50;3.00;;;;;;;0.69;38.28;100428.11;1664308;85;21102;-61
2021/12/22 10:06:43;;;;;;;6.42;3.10;;;;;;;0.14;39.44;100428.33;1667488;85;20959;-62
2021/12/22 10:09:09;;;;;;;5.30;2.90;;;;;;;0.14;40.08;100426.23;1679543;85;21028;-70
2021/12/22 10:11:44;;;;;;;6.40;3.00;;;;;;;0.82;40.02;100427.99;1671856;85;21672;-70
2021/12/22 10:14:18;;;;;;;5.50;2.87;;;;;;;1.21;39.01;100429.73;1659384;85;22372;-63
2021/12/22 10:16:47;;;;;;;6.10;2.52;;;;;;;1.22;38.08;100423.68;1663543;85;21074;-62
2021/12/22 10:19:14;;;;;;;5.65;2.80;;;;;;;0.21;38.85;100421.02;1664101;85;21015;-62
2021/12/22 10:22:01;;;;;;;5.47;2.62;;;;;;;-0.63;40.33;100430.88;1678392;84;21062;-70
2021/12/22 10:24:42;;;;;;;6.28;2.60;;;;;;;-0.94;40.80;100431.72;1665947;85;20980;-62
2021/12/22 10:27:11;;;;;;;6.37;3.00;;;;;;;-1.03;41.44;100433.61;1679147;85;22310;-64
2021/12/22 10:29:39;;;;;;;7.05;3.10;;;;;;;-0.49;40.61;100430.75;1679208;85;21592;-62
2021/12/22 10:32:15;;;;;;;5.95;2.75;;;;;;;-0.54;40.01;100433.61;1661478;85;21636;-62
2021/12/22 10:35:05;;;;;;;5.35;2.75;;;;;;;-1.07;40.12;100437.30;1670259;85;21063;-62
2021/12/22 10:37:38;;;;;;;6.67;2.52;;;;;;;-1.33;40.25;100433.92;1646997;85;22120;-65
2021/12/22 10:40:40;;;;;;;6.75;3.80;;;;;;;-2.30;42.07;100440.64;1677757;85;21155;-68
2021/12/22 10:43:18;;;;;;;6.65;2.77;;;;;;;-2.41;44.03;100437.48;1665817;85;21079;-62
2021/12/22 10:45:48;;;;;;;5.70;3.02;;;;;;;-1.69;44.52;100434.63;1647036;85;21376;-63
2021/12/22 10:51:05;;;;;;;5.87;3.17;;;;;;;-0.88;43.72;100428.72;1666908;85;21226;-62
2021/12/22 10:53:31;;;;;;;7.50;3.72;;;;;;;-0.19;42.63;100430.76;1663529;85;21151;-62
2021/12/22 10:55:58;;;;;;;9.05;3.42;;;;;;;-0.28;42.31;100433.52;1655647;85;21596;-67
2021/12/22 10:58:40;;;;;;;4.80;2.60;;;;;;;-0.27;42.07;100428.27;1679192;85;21067;-63
2021/12/22 11:01:11;;;;;;;5.85;3.27;;;;;;;-0.30;43.30;100425.14;1670377;85;21016;-71
2021/12/22 11:03:47;;;;;;;5.22;3.02;;;;;;;-0.22;42.60;100434.84;1640184;86;21114;-63
2021/12/22 11:06:17;;;;;;;6.62;3.15;;;;;;;-0.31;42.38;100438.85;1620655;87;21174;-64
2021/12/22 11:09:12;;;;;;;5.60;3.22;;;;;;;-0.25;42.50;100439.24;1639592;86;21012;-63
2021/12/22 11:11:37;;;;;;;6.92;2.98;;;;;;;-0.48;41.97;100441.33;1622774;87;21580;-62
2021/12/22 11:14:22;;;;;;;5.80;2.70;;;;;;;-0.78;41.50;100441.72;1646708;86;21013;-65
2021/12/22 11:17:07;;;;;;;6.62;2.92;;;;;;;-1.24;41.65;100453.79;1664280;84;21726;-65
2021/12/22 11:19:58;;;;;;;5.62;2.80;;;;;;;-1.63;41.42;100452.95;1668801;84;22304;-65
2021/12/22 11:22:58;;;;;;;7.40;2.83;;;;;;;-1.99;41.66;100459.49;1670682;84;22184;-62
2021/12/22 11:25:21;;;;;;;7.20;3.15;;;;;;;-2.44;42.18;100461.91;1659405;84;21062;-66
2021/12/22 11:27:50;;;;;;;5.40;2.85;;;;;;;-2.32;42.43;100465.44;1661504;84;21011;-61
2021/12/22 11:30:16;;;;;;;7.05;3.27;;;;;;;-2.44;42.78;100461.91;1664712;84;21052;-72
2021/12/22 11:32:44;;;;;;;7.50;3.25;;;;;;;-2.44;43.18;100474.67;1660102;84;22254;-68
2021/12/22 11:35:12;;;;;;;6.80;3.33;;;;;;;-2.54;43.31;100482.52;1664651;84;21376;-67
2021/12/22 11:37:39;;;;;;;6.65;3.35;;;;;;;-2.96;43.41;100479.91;1660654;84;21125;-66
2021/12/22 11:40:09;;;;;;;8.23;3.55;;;;;;;-3.11;43.49;100487.19;1675379;85;20947;-66
2021/12/22 11:42:42;;;;;;;7.87;3.08;;;;;;;-3.41;43.78;100488.50;1684137;84;21070;-72
2021/12/22 11:45:19;;;;;;;10.75;3.75;;;;;;;-3.56;43.91;100499.14;1670272;84;21155;-67
2021/12/22 11:47:52;;;;;;;7.90;3.12;;;;;;;-3.52;44.18;100498.05;1683634;85;21014;-66
2021/12/22 11:50:30;;;;;;;6.03;3.00;;;;;;;-3.48;44.06;100496.16;1685044;84;21475;-71
2021/12/22 11:53:03;;;;;;;6.65;3.10;;;;;;;-3.53;44.18;100498.13;1685025;84;21003;-69
2021/12/22 11:55:49;;;;;;;9.63;3.77;;;;;;;-3.67;44.21;100503.56;1685666;85;21023;-67
2021/12/22 11:58:26;;;;;;;6.97;3.12;;;;;;;-3.62;44.05;100501.20;1685317;84;21132;-67
2021/12/22 12:01:09;;;;;;;6.35;3.65;;;;;;;-3.74;44.28;100505.27;1676979;85;20955;-68
2021/12/22 12:03:40;;;;;;;6.60;2.98;;;;;;;-3.78;44.39;100504.61;1676602;85;20987;-65